Time;durP1;ratioP1;P1;durP2;ratioP2;P2;SDS_P1;SDS_P2;PMS_P1;PMS_P2;Temp;Humidity;BMP_temperature;BMP_pressure;BME280_temperature;BME280_humidity;BME280_pressure;Samples;Min_cycle;Max_cycle;Signal;HPM_P1;HPM_P2
2021/09/24 00:01:31;;;;;;;;;;;20.20;47.20;;;;;;8395326;28;19917;-49
2021/09/24 00:05:32;;;;;;;;;;;20.20;47.20;;;;;;8395949;28;20038;-48
2021/09/24 00:09:32;;;;;;;;;;;20.20;47.20;;;;;;8395796;28;19955;-51
2021/09/24 00:13:33;;;;;;;;;;;20.20;47.20;;;;;;8395742;28;19920;-47
2021/09/24 00:17:33;;;;;;;;;;;20.20;47.20;;;;;;8395838;28;19923;-47
2021/09/24 00:21:34;;;;;;;;;;;20.20;47.20;;;;;;8395999;28;19921;-48
2021/09/24 00:25:34;;;;;;;;;;;20.20;47.20;;;;;;8395026;28;19970;-48
2021/09/24 00:29:35;;;;;;;;;;;20.10;47.10;;;;;;8395778;28;19964;-49
2021/09/24 00:33:35;;;;;;;;;;;20.10;47.10;;;;;;8396057;28;19913;-51
2021/09/24 00:37:36;;;;;;;;;;;20.10;47.10;;;;;;8394944;28;20022;-49
2021/09/24 00:41:36;;;;;;;;;;;20.10;47.20;;;;;;8398871;28;19917;-49
2021/09/24 00:45:37;;;;;;;;;;;20.10;47.20;;;;;;8401120;28;20347;-49
2021/09/24 00:49:37;;;;;;;;;;;20.10;47.10;;;;;;8401483;28;20582;-48
2021/09/24 00:53:38;;;;;;;;;;;20.10;47.20;;;;;;8401452;28;20304;-48
2021/09/24 00:57:38;;;;;;;;;;;20.10;47.20;;;;;;8400831;28;19962;-51
2021/09/24 01:01:38;;;;;;;;;;;20.10;47.10;;;;;;8400155;28;20325;-48
2021/09/24 01:05:39;;;;;;;;;;;20.10;47.20;;;;;;8400751;28;19924;-49
2021/09/24 01:09:40;;;;;;;;;;;20.10;47.20;;;;;;8401090;28;19925;-48
2021/09/24 01:13:40;;;;;;;;;;;20.10;47.20;;;;;;8399439;28;20373;-48
2021/09/24 01:17:41;;;;;;;;;;;20.10;47.20;;;;;;8407393;28;19939;-48
2021/09/24 01:21:42;;;;;;;;;;;20.10;47.20;;;;;;8400131;28;19920;-48
2021/09/24 01:25:43;;;;;;;;;;;20.00;47.20;;;;;;8400120;28;19913;-50
2021/09/24 01:29:48;;;;;;;;;;;20.00;47.10;;;;;;8399917;28;20357;-48
2021/09/24 01:33:49;;;;;;;;;;;20.00;47.20;;;;;;8399466;28;19924;-49
2021/09/24 01:37:49;;;;;;;;;;;20.00;47.20;;;;;;8398933;28;20461;-51
2021/09/24 01:41:50;;;;;;;;;;;20.00;47.20;;;;;;8400179;28;19944;-48
2021/09/24 01:45:50;;;;;;;;;;;20.00;47.20;;;;;;8399382;28;20007;-48
2021/09/24 01:49:51;;;;;;;;;;;20.00;47.20;;;;;;8398602;28;19932;-51
2021/09/24 01:53:51;;;;;;;;;;;20.00;47.20;;;;;;8398220;28;19923;-51
2021/09/24 01:57:52;;;;;;;;;;;20.00;47.20;;;;;;8398774;28;19913;-48
2021/09/24 02:01:52;;;;;;;;;;;20.00;47.20;;;;;;8399020;28;19912;-47
2021/09/24 02:05:53;;;;;;;;;;;20.00;47.20;;;;;;8398443;28;19917;-47
2021/09/24 02:09:53;;;;;;;;;;;20.00;47.20;;;;;;8398496;28;20342;-47
2021/09/24 02:13:54;;;;;;;;;;;20.00;47.20;;;;;;8397866;28;20007;-47
2021/09/24 02:17:54;;;;;;;;;;;19.90;47.20;;;;;;8398791;28;19912;-48
2021/09/24 02:21:55;;;;;;;;;;;19.90;47.20;;;;;;8398060;28;19916;-47
2021/09/24 02:25:55;;;;;;;;;;;19.90;47.20;;;;;;8397405;28;20046;-48
2021/09/24 02:29:55;;;;;;;;;;;19.90;47.20;;;;;;8397967;28;19982;-47
2021/09/24 02:33:56;;;;;;;;;;;19.90;47.20;;;;;;8398285;28;19919;-47
2021/09/24 02:37:56;;;;;;;;;;;19.90;47.20;;;;;;8397272;28;20341;-48
2021/09/24 02:41:57;;;;;;;;;;;19.90;47.20;;;;;;8397661;28;19917;-48
2021/09/24 02:45:57;;;;;;;;;;;19.90;47.20;;;;;;8397309;28;20087;-48
2021/09/24 02:49:58;;;;;;;;;;;19.90;47.20;;;;;;8396667;28;19933;-48
2021/09/24 02:53:58;;;;;;;;;;;19.90;47.20;;;;;;8397638;28;19916;-48
2021/09/24 02:57:59;;;;;;;;;;;19.80;47.10;;;;;;8396981;28;20003;-47
2021/09/24 03:01:59;;;;;;;;;;;19.80;47.10;;;;;;8396411;28;19916;-48
2021/09/24 03:06:00;;;;;;;;;;;19.80;47.20;;;;;;8395861;28;20018;-47
2021/09/24 03:10:00;;;;;;;;;;;19.80;47.20;;;;;;8397602;28;19931;-48
2021/09/24 03:14:01;;;;;;;;;;;19.80;47.10;;;;;;8396484;28;20285;-47
2021/09/24 03:18:02;;;;;;;;;;;19.80;47.10;;;;;;8396583;28;19917;-48
2021/09/24 03:22:02;;;;;;;;;;;19.80;47.20;;;;;;8396216;28;19923;-47
2021/09/24 03:26:03;;;;;;;;;;;19.80;47.10;;;;;;8396785;28;19912;-48
2021/09/24 03:30:04;;;;;;;;;;;19.80;47.20;;;;;;8396753;28;19921;-48
2021/09/24 03:34:05;;;;;;;;;;;19.80;47.20;;;;;;8396269;28;19916;-48
2021/09/24 03:38:06;;;;;;;;;;;19.80;47.10;;;;;;8396157;28;19962;-50
2021/09/24 03:42:06;;;;;;;;;;;19.80;47.10;;;;;;8396080;28;19921;-49
2021/09/24 03:46:07;;;;;;;;;;;19.80;47.10;;;;;;8396336;28;19936;-47
2021/09/24 03:50:08;;;;;;;;;;;19.80;47.10;;;;;;8396151;28;19947;-51
2021/09/24 03:54:08;;;;;;;;;;;19.80;47.10;;;;;;8395744;28;19973;-48
2021/09/24 03:58:09;;;;;;;;;;;19.80;47.10;;;;;;8395340;28;19917;-49
2021/09/24 04:02:10;;;;;;;;;;;19.80;47.10;;;;;;8396985;28;19912;-48
2021/09/24 04:06:10;;;;;;;;;;;19.80;47.10;;;;;;8395577;28;19999;-49
2021/09/24 04:10:11;;;;;;;;;;;19.80;47.10;;;;;;8395565;28;19931;-49
2021/09/24 04:14:11;;;;;;;;;;;19.80;47.10;;;;;;8395549;28;19920;-48
2021/09/24 04:18:12;;;;;;;;;;;19.80;47.10;;;;;;8401859;28;19916;-51
2021/09/24 04:22:12;;;;;;;;;;;19.80;47.10;;;;;;8402169;28;19916;-50
2021/09/24 04:26:13;;;;;;;;;;;19.80;47.10;;;;;;8401814;28;19916;-49
2021/09/24 04:30:13;;;;;;;;;;;19.80;47.10;;;;;;8401514;28;19925;-49
2021/09/24 04:34:13;;;;;;;;;;;19.80;47.10;;;;;;8400912;28;19916;-48
2021/09/24 04:38:14;;;;;;;;;;;19.70;47.10;;;;;;8402275;28;19913;-48
2021/09/24 04:42:14;;;;;;;;;;;19.70;47.10;;;;;;8401130;28;19917;-48
2021/09/24 04:46:15;;;;;;;;;;;19.80;47.10;;;;;;8400674;28;19921;-48
2021/09/24 04:50:15;;;;;;;;;;;19.70;47.10;;;;;;8400910;28;20015;-48
2021/09/24 04:54:16;;;;;;;;;;;19.70;47.10;;;;;;8401752;28;19912;-49
2021/09/24 04:58:16;;;;;;;;;;;19.70;47.10;;;;;;8400528;28;19916;-50
2021/09/24 05:02:17;;;;;;;;;;;19.80;47.10;;;;;;8400590;28;19924;-48
2021/09/24 05:06:17;;;;;;;;;;;19.70;47.10;;;;;;8400715;28;19973;-48
2021/09/24 05:10:18;;;;;;;;;;;19.80;47.10;;;;;;8400312;28;19931;-48
2021/09/24 05:14:18;;;;;;;;;;;19.80;47.10;;;;;;8400980;28;19923;-48
2021/09/24 05:18:19;;;;;;;;;;;19.70;47.10;;;;;;8400141;28;20301;-51
2021/09/24 05:22:19;;;;;;;;;;;19.70;47.20;;;;;;8399632;28;19923;-47
2021/09/24 05:26:20;;;;;;;;;;;19.70;47.20;;;;;;8398810;28;19917;-48
2021/09/24 05:30:20;;;;;;;;;;;19.70;47.20;;;;;;8400512;28;19916;-50
2021/09/24 05:34:22;;;;;;;;;;;19.70;47.20;;;;;;8399313;28;19916;-48
2021/09/24 05:38:22;;;;;;;;;;;19.70;47.20;;;;;;8400004;28;19917;-48
2021/09/24 05:42:23;;;;;;;;;;;19.70;47.20;;;;;;8399570;28;19916;-50
2021/09/24 05:46:23;;;;;;;;;;;19.70;47.20;;;;;;8399569;28;20427;-50
2021/09/24 05:50:26;;;;;;;;;;;19.70;47.20;;;;;;8399059;28;19916;-48
2021/09/24 05:54:27;;;;;;;;;;;19.70;47.30;;;;;;8398980;28;19917;-48
2021/09/24 05:58:27;;;;;;;;;;;19.70;47.80;;;;;;8398486;28;20364;-50
2021/09/24 06:02:27;;;;;;;;;;;19.70;47.30;;;;;;8398779;28;20058;-48
2021/09/24 06:06:28;;;;;;;;;;;19.70;47.30;;;;;;8399383;28;19916;-47
2021/09/24 06:10:28;;;;;;;;;;;19.70;47.30;;;;;;8398440;28;19920;-48
2021/09/24 06:14:29;;;;;;;;;;;19.70;47.30;;;;;;8398571;28;19950;-48
2021/09/24 06:18:30;;;;;;;;;;;19.70;47.30;;;;;;8398050;28;20058;-48
2021/09/24 06:22:30;;;;;;;;;;;19.70;47.30;;;;;;8398310;28;19922;-49
2021/09/24 06:26:31;;;;;;;;;;;19.70;47.30;;;;;;8397836;28;20425;-47
2021/09/24 06:30:33;;;;;;;;;;;19.70;47.30;;;;;;8397827;28;19917;-48
2021/09/24 06:34:35;;;;;;;;;;;19.70;47.30;;;;;;8397327;28;19917;-47
2021/09/24 06:38:35;;;;;;;;;;;19.70;47.30;;;;;;8397643;28;19916;-48
2021/09/24 06:42:36;;;;;;;;;;;19.70;47.30;;;;;;8398277;28;19923;-48
2021/09/24 06:46:37;;;;;;;;;;;19.70;47.30;;;;;;8396799;28;19951;-49
2021/09/24 06:50:38;;;;;;;;;;;19.70;47.30;;;;;;8397417;28;19917;-47
2021/09/24 06:54:38;;;;;;;;;;;19.70;47.40;;;;;;8397181;28;20066;-48
2021/09/24 06:58:39;;;;;;;;;;;19.70;47.40;;;;;;8397069;28;19920;-47
2021/09/24 07:02:39;;;;;;;;;;;19.70;47.40;;;;;;8396331;28;19916;-48
2021/09/24 07:06:40;;;;;;;;;;;19.70;47.40;;;;;;8396741;28;19974;-48
2021/09/24 07:10:40;;;;;;;;;;;19.70;47.40;;;;;;8396528;28;20387;-49
2021/09/24 07:14:41;;;;;;;;;;;19.70;47.40;;;;;;8397260;28;19919;-49
2021/09/24 07:18:41;;;;;;;;;;;19.70;47.40;;;;;;8396388;28;19928;-49
2021/09/24 07:22:42;;;;;;;;;;;19.70;47.40;;;;;;8395820;28;19916;-49
2021/09/24 07:26:43;;;;;;;;;;;19.70;48.00;;;;;;8407747;28;20291;-50
2021/09/24 07:30:43;;;;;;;;;;;19.70;47.40;;;;;;8426519;28;20006;-49
2021/09/24 07:34:44;;;;;;;;;;;19.70;47.50;;;;;;8427671;28;19916;-48
2021/09/24 07:38:45;;;;;;;;;;;19.70;47.50;;;;;;8404100;28;19962;-49
2021/09/24 07:42:45;;;;;;;;;;;19.70;47.50;;;;;;8395988;28;19919;-49
2021/09/24 07:46:47;;;;;;;;;;;19.70;47.50;;;;;;8395504;28;19920;-48
2021/09/24 07:50:47;;;;;;;;;;;19.70;47.50;;;;;;8399623;28;20373;-49
2021/09/24 07:54:48;;;;;;;;;;;19.70;47.50;;;;;;8403121;28;19916;-47
2021/09/24 07:58:48;;;;;;;;;;;19.70;47.50;;;;;;8402198;28;19920;-49
2021/09/24 08:02:49;;;;;;;;;;;19.70;47.50;;;;;;8402661;28;19916;-49
2021/09/24 08:06:50;;;;;;;;;;;19.70;47.50;;;;;;8403029;28;20085;-49
2021/09/24 08:10:50;;;;;;;;;;;19.70;47.50;;;;;;8402049;28;19920;-50
2021/09/24 08:14:51;;;;;;;;;;;19.70;47.60;;;;;;8402442;28;19920;-49
2021/09/24 08:18:51;;;;;;;;;;;19.80;47.50;;;;;;8401877;28;19916;-49
2021/09/24 08:22:52;;;;;;;;;;;19.80;47.60;;;;;;8401519;28;19925;-52
2021/09/24 08:26:52;;;;;;;;;;;19.70;47.60;;;;;;8402550;28;19924;-50
2021/09/24 08:30:52;;;;;;;;;;;19.70;47.60;;;;;;8401640;28;19924;-49
2021/09/24 08:34:53;;;;;;;;;;;19.80;47.60;;;;;;8401189;28;19917;-49
2021/09/24 08:38:53;;;;;;;;;;;19.80;47.70;;;;;;8401676;28;19920;-49
2021/09/24 08:42:54;;;;;;;;;;;19.80;47.70;;;;;;8402352;28;19952;-49
2021/09/24 08:46:55;;;;;;;;;;;19.70;47.60;;;;;;8400367;28;20381;-49
2021/09/24 08:50:56;;;;;;;;;;;19.80;47.70;;;;;;8401208;28;19969;-49
2021/09/24 08:54:56;;;;;;;;;;;19.80;47.70;;;;;;8401045;28;20365;-49
2021/09/24 08:58:57;;;;;;;;;;;19.80;47.70;;;;;;8400529;28;19924;-50
2021/09/24 09:02:59;;;;;;;;;;;19.80;47.80;;;;;;8400005;28;19956;-49
2021/09/24 09:07:03;;;;;;;;;;;19.80;47.80;;;;;;8400436;28;20396;-48
2021/09/24 09:11:04;;;;;;;;;;;19.80;47.80;;;;;;8400457;28;19920;-47
2021/09/24 09:15:09;;;;;;;;;;;19.80;47.80;;;;;;8400449;28;20447;-48
2021/09/24 09:19:12;;;;;;;;;;;19.80;47.80;;;;;;8400368;28;19921;-48
2021/09/24 09:23:13;;;;;;;;;;;19.80;47.80;;;;;;8399867;28;19923;-47
2021/09/24 09:27:18;;;;;;;;;;;19.80;47.80;;;;;;8399865;28;19925;-47
2021/09/24 09:31:26;;;;;;;;;;;19.80;47.80;;;;;;8399228;28;19912;-47
2021/09/24 09:35:27;;;;;;;;;;;19.80;47.80;;;;;;8400062;28;20015;-49
2021/09/24 09:39:29;;;;;;;;;;;19.80;47.80;;;;;;8400202;28;19917;-48
2021/09/24 09:43:32;;;;;;;;;;;19.80;47.80;;;;;;8398991;28;19924;-48
2021/09/24 09:47:34;;;;;;;;;;;19.80;47.80;;;;;;8399282;28;19925;-49
2021/09/24 09:51:39;;;;;;;;;;;19.80;47.90;;;;;;8420717;28;19970;-49
2021/09/24 09:55:41;;;;;;;;;;;19.80;47.90;;;;;;8399307;28;19980;-48
2021/09/24 09:59:47;;;;;;;;;;;19.90;47.90;;;;;;8399172;28;19927;-49
2021/09/24 10:03:49;;;;;;;;;;;19.90;47.90;;;;;;8398874;28;19919;-47
2021/09/24 10:07:50;;;;;;;;;;;19.90;47.90;;;;;;8401793;28;19924;-48
2021/09/24 10:11:52;;;;;;;;;;;19.90;47.90;;;;;;8398744;28;20393;-53
2021/09/24 10:15:53;;;;;;;;;;;19.90;47.90;;;;;;8398610;28;19917;-49
2021/09/24 10:19:57;;;;;;;;;;;20.00;47.90;;;;;;8397786;28;19939;-49
2021/09/24 10:23:57;;;;;;;;;;;20.00;47.90;;;;;;8398083;28;20384;-48
2021/09/24 10:28:02;;;;;;;;;;;20.00;47.90;;;;;;8398048;28;20509;-49
2021/09/24 10:32:11;;;;;;;;;;;20.00;47.80;;;;;;8389926;28;19913;-52
2021/09/24 10:36:31;;;;;;;;;;;20.00;47.80;;;;;;8364748;28;19924;-52
2021/09/24 10:40:32;;;;;;;;;;;20.10;47.80;;;;;;8364349;28;19924;-51
2021/09/24 10:44:52;;;;;;;;;;;20.10;47.80;;;;;;8364622;28;19928;-51
2021/09/24 10:49:11;;;;;;;;;;;20.10;47.80;;;;;;8364267;28;19965;-52
2021/09/24 10:53:29;;;;;;;;;;;20.10;47.70;;;;;;8364842;28;19919;-51
2021/09/24 10:57:50;;;;;;;;;;;20.20;47.80;;;;;;8364808;28;20324;-49
2021/09/24 11:01:50;;;;;;;;;;;20.10;47.70;;;;;;8390984;28;19917;-50
2021/09/24 11:05:57;;;;;;;;;;;20.20;47.70;;;;;;8397042;28;19923;-48
2021/09/24 11:09:57;;;;;;;;;;;20.20;47.70;;;;;;8397187;28;19928;-49
2021/09/24 11:13:59;;;;;;;;;;;20.20;47.70;;;;;;8397004;28;19925;-49
2021/09/24 11:18:00;;;;;;;;;;;20.20;47.70;;;;;;8396955;28;19920;-49
2021/09/24 11:22:13;;;;;;;;;;;20.20;48.10;;;;;;8396434;28;19920;-49
2021/09/24 11:26:13;;;;;;;;;;;20.30;47.60;;;;;;8395438;28;20436;-48
2021/09/24 11:30:14;;;;;;;;;;;20.30;47.60;;;;;;8396671;28;19930;-47
2021/09/24 11:34:35;;;;;;;;;;;20.30;47.60;;;;;;8396637;28;19917;-49
2021/09/24 11:38:35;;;;;;;;;;;20.30;47.50;;;;;;8396148;28;20011;-48
2021/09/24 11:42:37;;;;;;;;;;;20.30;47.50;;;;;;8396316;28;19961;-49
2021/09/24 11:46:37;;;;;;;;;;;20.40;47.60;;;;;;8395538;28;20380;-48
2021/09/24 11:50:38;;;;;;;;;;;20.40;47.50;;;;;;8396300;28;19917;-49
2021/09/24 11:54:38;;;;;;;;;;;20.40;47.50;;;;;;8397589;28;19916;-51
2021/09/24 11:58:39;;;;;;;;;;;20.40;47.50;;;;;;8395778;28;20342;-49
2021/09/24 12:02:39;;;;;;;;;;;20.40;47.50;;;;;;8395861;28;20285;-49
2021/09/24 12:06:40;;;;;;;;;;;20.50;47.50;;;;;;8395859;28;19921;-49
2021/09/24 12:10:41;;;;;;;;;;;20.50;47.50;;;;;;8396147;28;19928;-49
2021/09/24 12:14:41;;;;;;;;;;;20.50;47.50;;;;;;8396215;28;20015;-49
2021/09/24 12:18:43;;;;;;;;;;;20.50;47.40;;;;;;8395719;28;19912;-49
2021/09/24 12:22:44;;;;;;;;;;;20.50;47.40;;;;;;8395306;28;19916;-48
2021/09/24 12:26:46;;;;;;;;;;;20.50;47.40;;;;;;8396209;28;19918;-49
2021/09/24 12:30:48;;;;;;;;;;;20.60;47.40;;;;;;8394981;28;21223;-49
2021/09/24 12:34:53;;;;;;;;;;;20.60;47.40;;;;;;8395199;28;19920;-49
2021/09/24 12:39:09;;;;;;;;;;;20.60;47.30;;;;;;8400833;28;19943;-49
2021/09/24 12:43:09;;;;;;;;;;;20.60;47.30;;;;;;8400649;28;19965;-49
2021/09/24 12:47:17;;;;;;;;;;;20.60;47.30;;;;;;8401729;28;20365;-50
2021/09/24 12:51:18;;;;;;;;;;;20.60;47.30;;;;;;8401547;28;20293;-49
2021/09/24 12:55:19;;;;;;;;;;;20.70;47.30;;;;;;8398600;28;20124;-50
2021/09/24 12:59:20;;;;;;;;;;;20.70;47.30;;;;;;8411536;28;19923;-53
2021/09/24 13:03:23;;;;;;;;;;;20.70;47.30;;;;;;8401012;28;19954;-49
2021/09/24 13:07:24;;;;;;;;;;;20.70;47.20;;;;;;8399437;28;19974;-49
2021/09/24 13:11:26;;;;;;;;;;;20.70;47.20;;;;;;8375825;28;20405;-49
2021/09/24 13:15:27;;;;;;;;;;;20.70;47.20;;;;;;8378216;28;20365;-49
2021/09/24 13:19:27;;;;;;;;;;;20.70;47.20;;;;;;8396302;28;19928;-51
2021/09/24 13:23:28;;;;;;;;;;;20.70;47.10;;;;;;8397275;28;19923;-51
2021/09/24 13:27:29;;;;;;;;;;;20.70;47.10;;;;;;8395599;28;19969;-49
2021/09/24 13:31:29;;;;;;;;;;;20.70;47.10;;;;;;8392343;28;19916;-48
2021/09/24 13:35:30;;;;;;;;;;;20.80;47.10;;;;;;8398169;28;19917;-50
2021/09/24 13:39:30;;;;;;;;;;;20.80;47.00;;;;;;8397643;28;19921;-52
2021/09/24 13:43:31;;;;;;;;;;;20.70;47.00;;;;;;8394256;28;20380;-51
2021/09/24 13:47:31;;;;;;;;;;;20.80;47.10;;;;;;8384592;28;19924;-49
2021/09/24 13:51:32;;;;;;;;;;;20.80;47.10;;;;;;8397239;28;19965;-51
2021/09/24 13:55:32;;;;;;;;;;;20.80;47.10;;;;;;8396924;28;20007;-52
2021/09/24 13:59:33;;;;;;;;;;;20.80;47.10;;;;;;8378680;28;19921;-51
2021/09/24 14:03:33;;;;;;;;;;;20.80;47.00;;;;;;8382068;28;20409;-49
2021/09/24 14:07:34;;;;;;;;;;;20.80;47.00;;;;;;8382415;28;19947;-47
2021/09/24 14:11:34;;;;;;;;;;;20.80;46.90;;;;;;8379222;28;19924;-49
2021/09/24 14:15:35;;;;;;;;;;;20.90;47.00;;;;;;8399003;28;20278;-50
2021/09/24 14:19:36;;;;;;;;;;;20.90;47.00;;;;;;8398317;28;19921;-49
2021/09/24 14:23:36;;;;;;;;;;;20.80;46.90;;;;;;8398280;28;19948;-52
2021/09/24 14:27:37;;;;;;;;;;;20.90;47.00;;;;;;8418553;28;20366;-53
2021/09/24 14:31:37;;;;;;;;;;;20.90;47.00;;;;;;8424539;28;19939;-50
2021/09/24 14:35:38;;;;;;;;;;;20.90;47.00;;;;;;8424832;28;19969;-50
2021/09/24 14:39:38;;;;;;;;;;;20.90;47.00;;;;;;8425978;28;19916;-52
2021/09/24 14:43:39;;;;;;;;;;;20.90;47.00;;;;;;8425332;28;20369;-52
2021/09/24 14:47:40;;;;;;;;;;;20.90;47.00;;;;;;8426091;28;19928;-51
2021/09/24 14:51:40;;;;;;;;;;;20.90;47.00;;;;;;8426577;28;19926;-50
2021/09/24 14:55:41;;;;;;;;;;;20.90;46.90;;;;;;8427791;28;19974;-50
2021/09/24 14:59:41;;;;;;;;;;;20.90;46.90;;;;;;8422855;28;19916;-49
2021/09/24 15:03:42;;;;;;;;;;;20.90;46.90;;;;;;8422242;28;19922;-50
2021/09/24 15:07:42;;;;;;;;;;;20.90;47.00;;;;;;8404246;28;19927;-49
2021/09/24 15:11:43;;;;;;;;;;;20.90;46.90;;;;;;8422184;28;19926;-53
2021/09/24 15:15:44;;;;;;;;;;;21.00;46.90;;;;;;8410119;28;19916;-52
2021/09/24 15:19:44;;;;;;;;;;;21.00;46.90;;;;;;8424050;28;20015;-49
2021/09/24 15:23:45;;;;;;;;;;;21.00;47.00;;;;;;8431118;28;19942;-50
2021/09/24 15:27:47;;;;;;;;;;;21.00;46.90;;;;;;8396483;28;20381;-52
2021/09/24 15:31:47;;;;;;;;;;;21.00;46.90;;;;;;8396013;28;19924;-50
2021/09/24 15:35:48;;;;;;;;;;;21.00;46.90;;;;;;8396432;28;20288;-49
2021/09/24 15:39:48;;;;;;;;;;;21.00;46.90;;;;;;8396379;28;19932;-50
2021/09/24 15:43:49;;;;;;;;;;;21.00;46.90;;;;;;8396551;28;19940;-50
2021/09/24 15:47:49;;;;;;;;;;;21.00;46.90;;;;;;8395945;28;19932;-49
2021/09/24 15:51:50;;;;;;;;;;;21.00;47.00;;;;;;8396189;28;19921;-50
2021/09/24 15:55:51;;;;;;;;;;;21.00;47.00;;;;;;8395547;28;19917;-49
2021/09/24 15:59:51;;;;;;;;;;;21.00;46.90;;;;;;8397105;28;20280;-50
2021/09/24 16:03:52;;;;;;;;;;;21.00;46.90;;;;;;8395958;28;19916;-50
2021/09/24 16:07:52;;;;;;;;;;;21.00;46.90;;;;;;8394947;28;19924;-53
2021/09/24 16:11:54;;;;;;;;;;;21.00;46.90;;;;;;8398978;28;19925;-52
2021/09/24 16:15:54;;;;;;;;;;;21.00;46.90;;;;;;8402585;28;20010;-50
2021/09/24 16:19:55;;;;;;;;;;;21.00;46.90;;;;;;8402544;28;20075;-48
2021/09/24 16:23:55;;;;;;;;;;;21.00;46.90;;;;;;8402258;28;19925;-50
2021/09/24 16:27:55;;;;;;;;;;;21.00;46.90;;;;;;8402367;28;20467;-52
2021/09/24 16:31:56;;;;;;;;;;;21.00;46.80;;;;;;8401255;28;20019;-49
2021/09/24 16:35:57;;;;;;;;;;;21.00;46.90;;;;;;8402558;28;20330;-49
2021/09/24 16:39:57;;;;;;;;;;;21.00;46.90;;;;;;8401732;28;19916;-49
2021/09/24 16:43:57;;;;;;;;;;;21.00;46.90;;;;;;8401738;28;19920;-50
2021/09/24 16:47:58;;;;;;;;;;;21.00;46.90;;;;;;8400777;28;19925;-48
2021/09/24 16:51:58;;;;;;;;;;;21.00;47.00;;;;;;8401969;28;19927;-49
2021/09/24 16:55:59;;;;;;;;;;;21.00;46.90;;;;;;8400408;28;20399;-52
2021/09/24 16:59:59;;;;;;;;;;;21.00;46.90;;;;;;8401024;28;19920;-49
2021/09/24 17:04:00;;;;;;;;;;;21.00;46.90;;;;;;8400758;28;19950;-49
2021/09/24 17:08:01;;;;;;;;;;;21.00;46.90;;;;;;8400114;28;20381;-51
2021/09/24 17:12:01;;;;;;;;;;;21.00;46.90;;;;;;8401202;28;19920;-49
2021/09/24 17:16:02;;;;;;;;;;;21.00;46.90;;;;;;8400411;28;19924;-50
2021/09/24 17:20:03;;;;;;;;;;;21.00;46.90;;;;;;8400388;28;19950;-50
2021/09/24 17:24:04;;;;;;;;;;;21.00;47.00;;;;;;8398884;28;19994;-50
2021/09/24 17:28:06;;;;;;;;;;;21.00;47.00;;;;;;8400292;28;20331;-49
2021/09/24 17:32:06;;;;;;;;;;;21.00;47.00;;;;;;8400217;28;19916;-50
2021/09/24 17:36:07;;;;;;;;;;;21.00;47.00;;;;;;8399683;28;19927;-49
2021/09/24 17:40:09;;;;;;;;;;;20.90;46.90;;;;;;8399318;28;19958;-49
2021/09/24 17:44:09;;;;;;;;;;;20.90;47.00;;;;;;8400468;28;19992;-49
2021/09/24 17:48:10;;;;;;;;;;;21.00;47.00;;;;;;8399166;28;19928;-49
2021/09/24 17:52:10;;;;;;;;;;;21.00;47.00;;;;;;8398721;28;20025;-49
2021/09/24 17:56:11;;;;;;;;;;;20.90;47.00;;;;;;8399433;28;19916;-49
2021/09/24 18:00:12;;;;;;;;;;;20.90;47.00;;;;;;8399270;28;19913;-48
2021/09/24 18:04:13;;;;;;;;;;;20.90;47.00;;;;;;8399228;28;20321;-48
2021/09/24 18:08:13;;;;;;;;;;;20.90;47.00;;;;;;8398637;28;19924;-48
2021/09/24 18:12:14;;;;;;;;;;;20.90;47.00;;;;;;8398902;28;19921;-48
2021/09/24 18:16:15;;;;;;;;;;;20.90;47.00;;;;;;8397997;28;19917;-49
2021/09/24 18:20:15;;;;;;;;;;;20.90;47.00;;;;;;8399007;28;20365;-47
2021/09/24 18:24:16;;;;;;;;;;;20.90;47.00;;;;;;8398465;28;19916;-51
2021/09/24 18:28:16;;;;;;;;;;;20.90;47.00;;;;;;8397596;28;20297;-51
2021/09/24 18:32:17;;;;;;;;;;;20.90;47.00;;;;;;8397842;28;19970;-49
2021/09/24 18:36:17;;;;;;;;;;;20.90;47.00;;;;;;8397866;28;19913;-51
2021/09/24 18:40:18;;;;;;;;;;;20.90;47.00;;;;;;8397671;28;20424;-50
2021/09/24 18:44:18;;;;;;;;;;;20.90;47.00;;;;;;8397498;28;19916;-53
2021/09/24 18:48:19;;;;;;;;;;;20.80;46.90;;;;;;8397378;28;20377;-52
2021/09/24 18:52:19;;;;;;;;;;;20.90;47.00;;;;;;8396924;28;19921;-53
2021/09/24 18:56:20;;;;;;;;;;;20.90;47.00;;;;;;8398168;28;19917;-52
2021/09/24 19:00:23;;;;;;;;;;;20.80;46.90;;;;;;8397714;28;19917;-54
2021/09/24 19:04:23;;;;;;;;;;;20.90;47.00;;;;;;8396578;28;19925;-49
2021/09/24 19:08:23;;;;;;;;;;;20.90;47.00;;;;;;8397118;28;19947;-49
2021/09/24 19:12:24;;;;;;;;;;;20.80;46.90;;;;;;8396941;28;19926;-51
2021/09/24 19:16:25;;;;;;;;;;;20.90;46.90;;;;;;8396345;28;19923;-50
2021/09/24 19:20:25;;;;;;;;;;;20.80;46.90;;;;;;8396491;28;19926;-52
2021/09/24 19:24:26;;;;;;;;;;;20.90;46.90;;;;;;8396820;28;19913;-49
2021/09/24 19:28:27;;;;;;;;;;;20.90;46.90;;;;;;8395945;28;19931;-49
2021/09/24 19:32:28;;;;;;;;;;;20.80;46.90;;;;;;8397137;28;19947;-52
2021/09/24 19:36:29;;;;;;;;;;;20.80;46.90;;;;;;8396738;28;20301;-49
2021/09/24 19:40:30;;;;;;;;;;;20.90;46.90;;;;;;8395714;28;19924;-48
2021/09/24 19:44:30;;;;;;;;;;;20.90;46.90;;;;;;8396091;28;19924;-49
2021/09/24 19:48:31;;;;;;;;;;;20.80;46.90;;;;;;8396066;28;20018;-51
2021/09/24 19:52:31;;;;;;;;;;;20.80;46.90;;;;;;8396265;28;19917;-50
2021/09/24 19:56:32;;;;;;;;;;;20.80;46.90;;;;;;8396090;28;19917;-53
2021/09/24 20:00:32;;;;;;;;;;;20.80;46.90;;;;;;8395977;28;19937;-48
2021/09/24 20:04:33;;;;;;;;;;;20.80;46.90;;;;;;8396448;28;19925;-51
2021/09/24 20:08:33;;;;;;;;;;;20.80;46.90;;;;;;8395320;28;19925;-52
2021/09/24 20:12:35;;;;;;;;;;;20.80;46.90;;;;;;8395878;28;20023;-49
2021/09/24 20:16:35;;;;;;;;;;;20.80;46.90;;;;;;8395306;28;20335;-52
2021/09/24 20:20:35;;;;;;;;;;;20.80;46.80;;;;;;8396008;28;19929;-53
2021/09/24 20:24:36;;;;;;;;;;;20.80;46.90;;;;;;8395190;28;19920;-53
2021/09/24 20:28:36;;;;;;;;;;;20.80;46.80;;;;;;8365701;28;19925;-50
2021/09/24 20:32:37;;;;;;;;;;;20.80;46.80;;;;;;8362580;28;20359;-50
2021/09/24 20:36:37;;;;;;;;;;;20.80;46.80;;;;;;8362264;28;19916;-51
2021/09/24 20:40:38;;;;;;;;;;;20.80;46.80;;;;;;8362534;28;19912;-52
2021/09/24 20:44:39;;;;;;;;;;;20.80;46.80;;;;;;8362447;28;19917;-51
2021/09/24 20:48:39;;;;;;;;;;;20.80;46.80;;;;;;8360753;28;19924;-50
2021/09/24 20:52:39;;;;;;;;;;;20.80;46.80;;;;;;8361583;28;19974;-49
2021/09/24 20:56:40;;;;;;;;;;;20.80;46.80;;;;;;8362833;28;19921;-50
2021/09/24 21:00:40;;;;;;;;;;;20.70;46.70;;;;;;8368444;28;19943;-49
2021/09/24 21:04:43;;;;;;;;;;;20.80;46.80;;;;;;8367335;28;19917;-50
2021/09/24 21:08:44;;;;;;;;;;;20.70;46.70;;;;;;8367457;28;19925;-50
2021/09/24 21:12:45;;;;;;;;;;;20.80;46.80;;;;;;8367672;28;19929;-49
2021/09/24 21:16:45;;;;;;;;;;;20.70;46.70;;;;;;8367559;28;19913;-49
2021/09/24 21:20:46;;;;;;;;;;;20.80;47.30;;;;;;8365820;28;19917;-48
2021/09/24 21:24:47;;;;;;;;;;;20.70;46.70;;;;;;8367464;28;20259;-51
2021/09/24 21:28:47;;;;;;;;;;;20.70;46.80;;;;;;8366416;28;19971;-53
2021/09/24 21:32:48;;;;;;;;;;;20.70;46.70;;;;;;8367717;28;19958;-51
2021/09/24 21:36:48;;;;;;;;;;;20.70;46.70;;;;;;8366619;28;19924;-49
2021/09/24 21:40:49;;;;;;;;;;;20.70;46.70;;;;;;8366470;28;20380;-50
2021/09/24 21:44:50;;;;;;;;;;;20.70;46.70;;;;;;8366852;28;19974;-53
2021/09/24 21:48:50;;;;;;;;;;;20.70;46.80;;;;;;8366482;28;19925;-51
2021/09/24 21:52:51;;;;;;;;;;;20.70;46.80;;;;;;8366569;28;19967;-51
2021/09/24 21:56:51;;;;;;;;;;;20.70;46.80;;;;;;8366004;28;19917;-48
2021/09/24 22:00:51;;;;;;;;;;;20.70;46.70;;;;;;8369845;28;19951;-52
2021/09/24 22:04:52;;;;;;;;;;;20.70;46.80;;;;;;8397432;28;19920;-49
2021/09/24 22:08:52;;;;;;;;;;;20.70;46.80;;;;;;8398836;28;19978;-50
2021/09/24 22:12:53;;;;;;;;;;;20.60;46.70;;;;;;8397239;28;20313;-50
2021/09/24 22:16:53;;;;;;;;;;;20.70;46.80;;;;;;8398066;28;19917;-49
2021/09/24 22:20:54;;;;;;;;;;;20.60;46.70;;;;;;8398514;28;19983;-50
2021/09/24 22:24:54;;;;;;;;;;;20.60;46.70;;;;;;8399030;28;19917;-49
2021/09/24 22:28:55;;;;;;;;;;;20.60;46.70;;;;;;8397615;28;20011;-49
2021/09/24 22:32:57;;;;;;;;;;;20.60;46.70;;;;;;8398061;28;19916;-50
2021/09/24 22:36:57;;;;;;;;;;;20.60;46.70;;;;;;8397963;28;20011;-51
2021/09/24 22:40:58;;;;;;;;;;;20.60;46.70;;;;;;8397723;28;19924;-50
2021/09/24 22:44:58;;;;;;;;;;;20.60;46.70;;;;;;8398549;28;19916;-52
2021/09/24 22:48:59;;;;;;;;;;;20.60;46.80;;;;;;8397605;28;19928;-49
2021/09/24 22:52:59;;;;;;;;;;;20.60;46.80;;;;;;8397077;28;19916;-50
2021/09/24 22:57:00;;;;;;;;;;;20.60;46.80;;;;;;8397322;28;19920;-52
2021/09/24 23:01:01;;;;;;;;;;;20.60;46.80;;;;;;8398122;28;19919;-50
2021/09/24 23:05:01;;;;;;;;;;;20.60;46.80;;;;;;8396275;28;19923;-51
2021/09/24 23:09:02;;;;;;;;;;;20.60;46.80;;;;;;8378185;28;19971;-49
2021/09/24 23:13:03;;;;;;;;;;;20.60;46.80;;;;;;8367516;28;19939;-47
2021/09/24 23:17:03;;;;;;;;;;;20.60;46.80;;;;;;8372000;28;19919;-47
2021/09/24 23:21:04;;;;;;;;;;;20.60;46.80;;;;;;8401854;28;19921;-52